Stella Ada — 9V9082 — position and weather

sailwx.info

Track history (hours):
 
Tides and Currents Weather Stations Pressure Air Temp Water Temp Dewpoint Dewpoint Depression Visibility Wind Speed Wind Dir Waves Ship Positions

Stella Ada

Last reported at 2017-Nov-29 21:52 UTC. Time now 2017-Dec-13 11:26 UTC.
Position N 25°09' E 122°38'.
Warning: this ship's position is 13 days out of date.

Length 296 m; draft 9.1 m.

Type: Cargo ship. MMSI: 566089000.

Date/timePositionNaut miles runAvg speedWind from/ knotsBaromVisibWave heightAir tempDewpointWater temp
2017-Nov-29 21:52N 25°09' E 122°38'412.4
2017-Nov-29 21:30N 25°04' E 122°37'713.4
2017-Nov-29 21:01N 24°58' E 122°35'714.3
2017-Nov-29 20:30N 24°51' E 122°32'714.4
2017-Nov-29 20:01N 24°45' E 122°29'714.0
2017-Nov-29 19:30N 24°38' E 122°25'612.3
2017-Nov-29 19:01N 24°32' E 122°25'714.9
2017-Nov-29 18:31N 24°25' E 122°22'714.4
2017-Nov-29 18:01N 24°19' E 122°20'713.9
2017-Nov-29 17:30N 24°12' E 122°17'713.3
2017-Nov-29 17:00N 24°06' E 122°14'714.1
2017-Nov-29 16:30N 23°59' E 122°12'714.5
2017-Nov-29 16:00N 23°52' E 122°09'7114.8
2017-Nov-29 11:15N 22°46' E 121°43'814.6
2017-Nov-29 10:43N 22°39' E 121°40'314.9
2017-Nov-29 10:30N 22°36' E 121°39'815.3
2017-Nov-29 09:59N 22°29' E 121°35'1515.2
2017-Nov-29 08:59N 22°16' E 121°27'815.2
2017-Nov-29 08:28N 22°09' E 121°23'715.1
2017-Nov-29 07:59N 22°02' E 121°19'  
2017-Nov-20 00:16S 19°57' E 118°25'0 0.0
2017-Nov-19 23:52S 19°57' E 118°25'0 0.0
2017-Nov-19 23:28S 19°57' E 118°25'0 0.0
2017-Nov-19 22:52S 19°57' E 118°25'0 0.2
2017-Nov-19 22:22S 19°57' E 118°25'0 0.5
2017-Nov-19 21:58S 19°57' E 118°25'  
Track history (hours):
 
Tides and Currents Weather Stations Pressure Air Temp Water Temp Dewpoint Dewpoint Depression Visibility Wind Speed Wind Dir Waves Ship Positions

Stella Ada

Last reported at 2017-Nov-29 21:52 UTC. Time now 2017-Dec-13 11:26 UTC.
Position N 25°09' E 122°38'.
Warning: this ship's position is 13 days out of date.

Length 296 m; draft 9.1 m.

Type: Cargo ship. MMSI: 566089000.

Date/timePositionNaut miles runAvg speedWind from/ knotsBaromVisibWave heightAir tempDewpointWater temp
2017-Nov-29 21:52N 25°09' E 122°38'412.4
2017-Nov-29 21:30N 25°04' E 122°37'713.4
2017-Nov-29 21:01N 24°58' E 122°35'714.3
2017-Nov-29 20:30N 24°51' E 122°32'714.4
2017-Nov-29 20:01N 24°45' E 122°29'714.0
2017-Nov-29 19:30N 24°38' E 122°25'612.3
2017-Nov-29 19:01N 24°32' E 122°25'714.9
2017-Nov-29 18:31N 24°25' E 122°22'714.4
2017-Nov-29 18:01N 24°19' E 122°20'713.9
2017-Nov-29 17:30N 24°12' E 122°17'713.3
2017-Nov-29 17:00N 24°06' E 122°14'714.1
2017-Nov-29 16:30N 23°59' E 122°12'714.5
2017-Nov-29 16:00N 23°52' E 122°09'7114.8
2017-Nov-29 11:15N 22°46' E 121°43'814.6
2017-Nov-29 10:43N 22°39' E 121°40'314.9
2017-Nov-29 10:30N 22°36' E 121°39'815.3
2017-Nov-29 09:59N 22°29' E 121°35'1515.2
2017-Nov-29 08:59N 22°16' E 121°27'815.2
2017-Nov-29 08:28N 22°09' E 121°23'715.1
2017-Nov-29 07:59N 22°02' E 121°19'  
2017-Nov-20 00:16S 19°57' E 118°25'0 0.0
2017-Nov-19 23:52S 19°57' E 118°25'0 0.0
2017-Nov-19 23:28S 19°57' E 118°25'0 0.0
2017-Nov-19 22:52S 19°57' E 118°25'0 0.2
2017-Nov-19 22:22S 19°57' E 118°25'0 0.5
2017-Nov-19 21:58S 19°57' E 118°25'  

Dump ship's entire track history